sensor_id;sensor_type;location;lat;lon;timestamp;pressure;altitude;pressure_sealevel;temperature;humidity
75409;BME280;63979;55.644;37.734;2023-05-07T00:02:28;101247.03;;;2.16;59.39
75409;BME280;63979;55.644;37.734;2023-05-07T00:07:29;101227.09;;;1.93;59.30
75409;BME280;63979;55.644;37.734;2023-05-07T00:12:30;101262.06;;;2.05;59.64
75409;BME280;63979;55.644;37.734;2023-05-07T00:17:34;101258.63;;;1.97;59.81
75409;BME280;63979;55.644;37.734;2023-05-07T00:22:35;101266.56;;;1.94;60.63
75409;BME280;63979;55.644;37.734;2023-05-07T00:27:36;101232.56;;;1.70;59.97
75409;BME280;63979;55.644;37.734;2023-05-07T00:32:37;101190.69;;;1.48;60.69
75409;BME280;63979;55.644;37.734;2023-05-07T00:37:38;101249.22;;;1.76;60.25
75409;BME280;63979;55.644;37.734;2023-05-07T00:42:39;101275.47;;;1.82;61.08
75409;BME280;63979;55.644;37.734;2023-05-07T00:47:40;101267.66;;;1.75;61.50
75409;BME280;63979;55.644;37.734;2023-05-07T00:52:42;101272.00;;;1.77;61.75
75409;BME280;63979;55.644;37.734;2023-05-07T00:57:43;101277.28;;;1.73;61.78
75409;BME280;63979;55.644;37.734;2023-05-07T01:02:45;101276.44;;;1.71;61.82
75409;BME280;63979;55.644;37.734;2023-05-07T01:07:47;101211.84;;;1.33;62.20
75409;BME280;63979;55.644;37.734;2023-05-07T01:12:50;101273.88;;;1.63;61.74
75409;BME280;63979;55.644;37.734;2023-05-07T01:17:51;101293.13;;;1.67;62.09
75409;BME280;63979;55.644;37.734;2023-05-07T01:22:53;101245.22;;;1.28;62.79
75409;BME280;63979;55.644;37.734;2023-05-07T01:27:53;101283.66;;;1.47;62.84
75409;BME280;63979;55.644;37.734;2023-05-07T01:33:07;101276.72;;;1.36;63.22
75409;BME280;63979;55.644;37.734;2023-05-07T01:38:09;101295.13;;;1.40;63.09
75409;BME280;63979;55.644;37.734;2023-05-07T01:43:11;101296.88;;;1.40;63.44
75409;BME280;63979;55.644;37.734;2023-05-07T01:48:13;101296.81;;;1.47;62.92
75409;BME280;63979;55.644;37.734;2023-05-07T01:53:15;101317.00;;;1.47;63.47
75409;BME280;63979;55.644;37.734;2023-05-07T01:58:16;101320.53;;;1.44;63.21
75409;BME280;63979;55.644;37.734;2023-05-07T02:03:17;101327.53;;;1.45;63.26
75409;BME280;63979;55.644;37.734;2023-05-07T02:08:18;101317.06;;;1.39;63.54
75409;BME280;63979;55.644;37.734;2023-05-07T02:13:19;101319.66;;;1.41;63.21
75409;BME280;63979;55.644;37.734;2023-05-07T02:18:22;101335.38;;;1.51;62.50
75409;BME280;63979;55.644;37.734;2023-05-07T02:23:23;101340.50;;;1.67;62.29
75409;BME280;63979;55.644;37.734;2023-05-07T02:28:24;101336.97;;;1.71;62.57
75409;BME280;63979;55.644;37.734;2023-05-07T02:33:25;101344.78;;;1.81;62.07
75409;BME280;63979;55.644;37.734;2023-05-07T02:38:26;101357.94;;;1.84;62.40
75409;BME280;63979;55.644;37.734;2023-05-07T02:43:28;101364.94;;;1.87;62.36
75409;BME280;63979;55.644;37.734;2023-05-07T02:48:29;101367.50;;;1.93;61.50
75409;BME280;63979;55.644;37.734;2023-05-07T02:53:31;101358.72;;;1.94;61.92
75409;BME280;63979;55.644;37.734;2023-05-07T02:58:31;101289.56;;;1.75;61.23
75409;BME280;63979;55.644;37.734;2023-05-07T03:03:32;101372.41;;;2.31;60.72
75409;BME280;63979;55.644;37.734;2023-05-07T03:08:33;101361.75;;;2.42;60.23
75409;BME280;63979;55.644;37.734;2023-05-07T03:13:35;101366.09;;;2.50;60.08
75409;BME280;63979;55.644;37.734;2023-05-07T03:18:35;101372.16;;;2.57;59.39
75409;BME280;63979;55.644;37.734;2023-05-07T03:23:37;101355.56;;;2.49;59.31
75409;BME280;63979;55.644;37.734;2023-05-07T03:28:38;101382.53;;;2.72;58.48
75409;BME280;63979;55.644;37.734;2023-05-07T03:33:51;101392.84;;;2.94;58.73
75409;BME280;63979;55.644;37.734;2023-05-07T03:38:52;101374.31;;;2.98;57.87
75409;BME280;63979;55.644;37.734;2023-05-07T03:43:54;101387.22;;;3.21;57.43
75409;BME280;63979;55.644;37.734;2023-05-07T03:48:54;101394.84;;;3.41;57.02
75409;BME280;63979;55.644;37.734;2023-05-07T03:53:56;101401.34;;;3.79;56.05
75409;BME280;63979;55.644;37.734;2023-05-07T03:58:57;101408.75;;;4.11;54.13
75409;BME280;63979;55.644;37.734;2023-05-07T04:03:58;101413.69;;;4.32;53.86
75409;BME280;63979;55.644;37.734;2023-05-07T04:08:59;101405.53;;;4.44;53.34
75409;BME280;63979;55.644;37.734;2023-05-07T04:14:00;101409.47;;;4.69;51.83
75409;BME280;63979;55.644;37.734;2023-05-07T04:19:01;101413.56;;;4.87;51.20
75409;BME280;63979;55.644;37.734;2023-05-07T04:24:03;101418.31;;;5.13;50.17
75409;BME280;63979;55.644;37.734;2023-05-07T04:29:04;101413.19;;;5.04;49.51
75409;BME280;63979;55.644;37.734;2023-05-07T04:34:06;101424.84;;;5.39;49.66
75409;BME280;63979;55.644;37.734;2023-05-07T04:39:08;101393.47;;;5.20;48.48
75409;BME280;63979;55.644;37.734;2023-05-07T04:44:09;101437.34;;;5.72;47.53
75409;BME280;63979;55.644;37.734;2023-05-07T04:49:11;101442.56;;;5.75;46.81
75409;BME280;63979;55.644;37.734;2023-05-07T04:54:12;101430.91;;;6.21;45.35
75409;BME280;63979;55.644;37.734;2023-05-07T04:59:13;101435.31;;;6.88;44.44
75409;BME280;63979;55.644;37.734;2023-05-07T05:04:15;101400.22;;;6.79;43.40
75409;BME280;63979;55.644;37.734;2023-05-07T05:09:16;101446.13;;;7.44;41.71
75409;BME280;63979;55.644;37.734;2023-05-07T05:14:18;101434.34;;;7.53;41.09
75409;BME280;63979;55.644;37.734;2023-05-07T05:19:19;101396.75;;;7.93;39.09
75409;BME280;63979;55.644;37.734;2023-05-07T05:24:20;101429.38;;;8.79;37.82
75409;BME280;63979;55.644;37.734;2023-05-07T05:29:21;101442.31;;;9.38;36.95
75409;BME280;63979;55.644;37.734;2023-05-07T05:34:22;101456.03;;;9.96;33.80
75409;BME280;63979;55.644;37.734;2023-05-07T05:39:23;101455.16;;;11.02;32.09
75409;BME280;63979;55.644;37.734;2023-05-07T05:44:24;101453.53;;;13.52;28.08
75409;BME280;63979;55.644;37.734;2023-05-07T05:49:25;101448.50;;;15.44;25.50
75409;BME280;63979;55.644;37.734;2023-05-07T05:54:26;101460.00;;;16.30;24.44
75409;BME280;63979;55.644;37.734;2023-05-07T05:59:27;101467.03;;;18.25;22.34
75409;BME280;63979;55.644;37.734;2023-05-07T06:04:28;101468.13;;;20.39;18.75
75409;BME280;63979;55.644;37.734;2023-05-07T06:09:29;101477.66;;;22.40;17.68
75409;BME280;63979;55.644;37.734;2023-05-07T06:14:30;101477.25;;;21.95;17.55
75409;BME280;63979;55.644;37.734;2023-05-07T06:19:31;101456.13;;;24.08;16.59
75409;BME280;63979;55.644;37.734;2023-05-07T06:24:32;101489.00;;;26.01;14.31
75409;BME280;63979;55.644;37.734;2023-05-07T06:29:33;101485.81;;;26.64;13.17
75409;BME280;63979;55.644;37.734;2023-05-07T06:34:34;101445.31;;;26.25;14.42
75409;BME280;63979;55.644;37.734;2023-05-07T06:39:35;101491.78;;;26.59;12.91
75409;BME280;63979;55.644;37.734;2023-05-07T06:44:37;101486.94;;;25.35;14.50
75409;BME280;63979;55.644;37.734;2023-05-07T06:49:38;101488.38;;;23.48;14.81
75409;BME280;63979;55.644;37.734;2023-05-07T06:54:39;101443.09;;;21.21;16.90
75409;BME280;63979;55.644;37.734;2023-05-07T06:59:40;101473.00;;;22.91;15.19
75409;BME280;63979;55.644;37.734;2023-05-07T07:04:41;101441.72;;;25.23;12.78
75409;BME280;63979;55.644;37.734;2023-05-07T07:09:42;101434.97;;;27.02;12.01
75409;BME280;63979;55.644;37.734;2023-05-07T07:14:43;101483.81;;;27.23;12.37
75409;BME280;63979;55.644;37.734;2023-05-07T07:19:44;101483.78;;;26.90;12.13
75409;BME280;63979;55.644;37.734;2023-05-07T07:24:45;101465.97;;;21.39;15.19
75409;BME280;63979;55.644;37.734;2023-05-07T07:29:46;101437.84;;;19.00;17.44
75409;BME280;63979;55.644;37.734;2023-05-07T07:34:47;101468.75;;;21.28;15.56
75409;BME280;63979;55.644;37.734;2023-05-07T07:39:49;101468.81;;;21.68;15.03
75409;BME280;63979;55.644;37.734;2023-05-07T07:44:50;101467.81;;;20.21;15.97
75409;BME280;63979;55.644;37.734;2023-05-07T07:49:51;101467.66;;;17.66;18.07
75409;BME280;63979;55.644;37.734;2023-05-07T07:54:53;101464.69;;;16.41;19.04
75409;BME280;63979;55.644;37.734;2023-05-07T07:59:54;101455.25;;;19.42;16.96
75409;BME280;63979;55.644;37.734;2023-05-07T08:04:55;101453.88;;;20.69;14.82
75409;BME280;63979;55.644;37.734;2023-05-07T08:09:56;101437.94;;;21.17;13.78
75409;BME280;63979;55.644;37.734;2023-05-07T08:14:57;101458.59;;;19.35;16.59
75409;BME280;63979;55.644;37.734;2023-05-07T08:19:58;101460.66;;;19.09;15.87
75409;BME280;63979;55.644;37.734;2023-05-07T08:24:59;101458.03;;;19.87;15.33
75409;BME280;63979;55.644;37.734;2023-05-07T08:30:01;101451.59;;;22.67;13.54
75409;BME280;63979;55.644;37.734;2023-05-07T08:35:05;101458.75;;;25.16;11.38
75409;BME280;63979;55.644;37.734;2023-05-07T08:40:07;101467.63;;;24.75;11.50
75409;BME280;63979;55.644;37.734;2023-05-07T08:45:09;101453.59;;;20.40;13.98
75409;BME280;63979;55.644;37.734;2023-05-07T08:50:11;101452.13;;;16.94;17.04
75409;BME280;63979;55.644;37.734;2023-05-07T08:55:13;101442.81;;;18.23;16.20
75409;BME280;63979;55.644;37.734;2023-05-07T09:00:14;101457.47;;;24.49;11.48
75409;BME280;63979;55.644;37.734;2023-05-07T09:05:15;101457.53;;;28.93;9.63
75409;BME280;63979;55.644;37.734;2023-05-07T09:10:16;101453.44;;;30.30;9.00
75409;BME280;63979;55.644;37.734;2023-05-07T09:15:18;101467.69;;;26.87;10.90
75409;BME280;63979;55.644;37.734;2023-05-07T09:20:19;101465.22;;;22.57;12.32
75409;BME280;63979;55.644;37.734;2023-05-07T09:25:31;101444.09;;;21.80;12.95
75409;BME280;63979;55.644;37.734;2023-05-07T09:30:33;101447.00;;;24.63;11.17
75409;BME280;63979;55.644;37.734;2023-05-07T09:35:35;101456.63;;;23.10;11.96
75409;BME280;63979;55.644;37.734;2023-05-07T09:40:38;101408.25;;;21.05;13.15
75409;BME280;63979;55.644;37.734;2023-05-07T09:45:40;101454.25;;;22.19;13.04
75409;BME280;63979;55.644;37.734;2023-05-07T09:50:51;101447.09;;;24.53;10.85
75409;BME280;63979;55.644;37.734;2023-05-07T09:55:59;101451.63;;;29.19;8.95
75409;BME280;63979;55.644;37.734;2023-05-07T10:01:01;101438.78;;;30.29;7.90
75409;BME280;63979;55.644;37.734;2023-05-07T10:06:04;101414.06;;;30.57;8.14
75409;BME280;63979;55.644;37.734;2023-05-07T10:11:05;101444.91;;;28.22;9.08
75409;BME280;63979;55.644;37.734;2023-05-07T10:16:06;101430.38;;;24.74;10.72
75409;BME280;63979;55.644;37.734;2023-05-07T10:21:11;101448.69;;;27.90;10.12
75409;BME280;63979;55.644;37.734;2023-05-07T10:26:21;101446.31;;;29.32;9.03
75409;BME280;63979;55.644;37.734;2023-05-07T10:36:43;101439.34;;;27.52;9.37
75409;BME280;63979;55.644;37.734;2023-05-07T10:41:45;101444.28;;;28.43;8.87
75409;BME280;63979;55.644;37.734;2023-05-07T10:47:12;101431.34;;;29.79;8.17
75409;BME280;63979;55.644;37.734;2023-05-07T11:08:03;101418.94;;;28.02;8.68
75409;BME280;63979;55.644;37.734;2023-05-07T11:13:05;101437.03;;;24.97;9.88
75409;BME280;63979;55.644;37.734;2023-05-07T11:18:06;101446.53;;;22.14;12.24
75409;BME280;63979;55.644;37.734;2023-05-07T11:23:07;101427.88;;;20.23;13.68
75409;BME280;63979;55.644;37.734;2023-05-07T11:28:09;101431.94;;;18.12;15.49
75409;BME280;63979;55.644;37.734;2023-05-07T11:33:11;101429.81;;;16.65;17.03
75409;BME280;63979;55.644;37.734;2023-05-07T11:38:13;101412.94;;;16.75;16.55
75409;BME280;63979;55.644;37.734;2023-05-07T11:43:14;101409.59;;;19.15;14.79
75409;BME280;63979;55.644;37.734;2023-05-07T11:48:16;101429.06;;;18.50;15.75
75409;BME280;63979;55.644;37.734;2023-05-07T11:53:17;101436.06;;;17.18;16.77
75409;BME280;63979;55.644;37.734;2023-05-07T11:58:24;101434.38;;;16.10;17.88
75409;BME280;63979;55.644;37.734;2023-05-07T12:03:26;101440.91;;;15.79;19.16
75409;BME280;63979;55.644;37.734;2023-05-07T12:08:27;101445.22;;;15.11;18.86
75409;BME280;63979;55.644;37.734;2023-05-07T12:13:28;101443.66;;;14.62;19.52
75409;BME280;63979;55.644;37.734;2023-05-07T12:18:29;101431.69;;;15.69;19.65
75409;BME280;63979;55.644;37.734;2023-05-07T12:23:30;101386.56;;;16.53;17.95
75409;BME280;63979;55.644;37.734;2023-05-07T12:28:37;101424.22;;;17.95;16.43
75409;BME280;63979;55.644;37.734;2023-05-07T12:33:39;101443.31;;;17.04;16.05
75409;BME280;63979;55.644;37.734;2023-05-07T12:38:41;101432.34;;;16.14;16.62
75409;BME280;63979;55.644;37.734;2023-05-07T12:43:45;101427.63;;;15.76;17.76
75409;BME280;63979;55.644;37.734;2023-05-07T12:48:48;101416.22;;;15.73;17.77
75409;BME280;63979;55.644;37.734;2023-05-07T12:53:49;101432.41;;;17.69;16.76
75409;BME280;63979;55.644;37.734;2023-05-07T12:58:50;101401.47;;;19.71;14.31
75409;BME280;63979;55.644;37.734;2023-05-07T13:03:51;101399.31;;;18.26;14.84
75409;BME280;63979;55.644;37.734;2023-05-07T13:08:53;101405.59;;;18.75;15.37
75409;BME280;63979;55.644;37.734;2023-05-07T13:13:53;101418.78;;;16.82;15.81
75409;BME280;63979;55.644;37.734;2023-05-07T13:18:54;101411.41;;;16.05;18.51
75409;BME280;63979;55.644;37.734;2023-05-07T13:23:56;101416.28;;;15.57;18.56
75409;BME280;63979;55.644;37.734;2023-05-07T13:28:57;101417.25;;;14.99;19.27
75409;BME280;63979;55.644;37.734;2023-05-07T13:33:57;101404.53;;;14.73;18.99
75409;BME280;63979;55.644;37.734;2023-05-07T13:38:58;101422.78;;;14.82;18.43
75409;BME280;63979;55.644;37.734;2023-05-07T13:44:01;101394.78;;;14.10;19.08
75409;BME280;63979;55.644;37.734;2023-05-07T13:49:01;101419.31;;;13.88;20.24
75409;BME280;63979;55.644;37.734;2023-05-07T13:54:03;101381.91;;;13.69;20.21
75409;BME280;63979;55.644;37.734;2023-05-07T13:59:05;101425.34;;;14.23;19.46
75409;BME280;63979;55.644;37.734;2023-05-07T14:04:06;101420.66;;;14.87;19.11
75409;BME280;63979;55.644;37.734;2023-05-07T14:09:08;101419.47;;;14.01;20.49
75409;BME280;63979;55.644;37.734;2023-05-07T14:14:12;101408.09;;;13.33;20.71
75409;BME280;63979;55.644;37.734;2023-05-07T14:19:14;101410.78;;;13.49;20.81
75409;BME280;63979;55.644;37.734;2023-05-07T14:24:14;101424.34;;;13.94;20.11
75409;BME280;63979;55.644;37.734;2023-05-07T14:29:16;101420.13;;;14.20;19.79
75409;BME280;63979;55.644;37.734;2023-05-07T14:34:19;101402.16;;;13.75;20.38
75409;BME280;63979;55.644;37.734;2023-05-07T14:39:21;101415.09;;;13.35;21.31
75409;BME280;63979;55.644;37.734;2023-05-07T14:44:22;101412.63;;;12.98;21.51
75409;BME280;63979;55.644;37.734;2023-05-07T14:49:23;101416.00;;;13.01;21.35
75409;BME280;63979;55.644;37.734;2023-05-07T14:54:24;101422.72;;;13.27;21.12
75409;BME280;63979;55.644;37.734;2023-05-07T14:59:25;101418.38;;;13.25;21.89
75409;BME280;63979;55.644;37.734;2023-05-07T15:04:26;101366.50;;;12.58;21.66
75409;BME280;63979;55.644;37.734;2023-05-07T15:09:27;101411.16;;;12.58;21.62
75409;BME280;63979;55.644;37.734;2023-05-07T15:14:35;101409.91;;;12.65;22.09
75409;BME280;63979;55.644;37.734;2023-05-07T15:19:37;101404.09;;;12.57;21.83
75409;BME280;63979;55.644;37.734;2023-05-07T15:24:38;101420.59;;;12.30;22.84
75409;BME280;63979;55.644;37.734;2023-05-07T15:29:39;101407.00;;;11.99;22.78
75409;BME280;63979;55.644;37.734;2023-05-07T15:34:40;101418.41;;;12.02;22.66
75409;BME280;63979;55.644;37.734;2023-05-07T15:39:42;101391.25;;;11.93;22.80
75409;BME280;63979;55.644;37.734;2023-05-07T15:44:43;101421.78;;;11.89;23.07
75409;BME280;63979;55.644;37.734;2023-05-07T15:49:44;101421.25;;;11.62;22.97
75409;BME280;63979;55.644;37.734;2023-05-07T15:54:45;101417.31;;;11.31;24.13
75409;BME280;63979;55.644;37.734;2023-05-07T15:59:46;101426.19;;;10.92;23.68
75409;BME280;63979;55.644;37.734;2023-05-07T16:04:47;101416.28;;;10.76;24.57
75409;BME280;63979;55.644;37.734;2023-05-07T16:09:48;101421.25;;;10.83;25.01
75409;BME280;63979;55.644;37.734;2023-05-07T16:14:49;101425.72;;;10.62;24.78
75409;BME280;63979;55.644;37.734;2023-05-07T16:19:51;101422.53;;;10.54;24.62
75409;BME280;63979;55.644;37.734;2023-05-07T16:24:52;101434.75;;;10.80;26.24
75409;BME280;63979;55.644;37.734;2023-05-07T16:29:53;101437.81;;;10.91;26.28
75409;BME280;63979;55.644;37.734;2023-05-07T16:34:54;101424.00;;;10.82;25.66
75409;BME280;63979;55.644;37.734;2023-05-07T16:39:55;101440.69;;;10.67;26.12
75409;BME280;63979;55.644;37.734;2023-05-07T16:44:56;101432.34;;;10.54;27.07
75409;BME280;63979;55.644;37.734;2023-05-07T16:49:58;101453.69;;;10.54;25.92
75409;BME280;63979;55.644;37.734;2023-05-07T16:55:00;101453.56;;;10.35;25.76
75409;BME280;63979;55.644;37.734;2023-05-07T17:00:01;101439.22;;;9.94;26.87
75409;BME280;63979;55.644;37.734;2023-05-07T17:05:07;101444.94;;;9.61;28.64
75409;BME280;63979;55.644;37.734;2023-05-07T17:10:09;101455.63;;;9.38;28.61
75409;BME280;63979;55.644;37.734;2023-05-07T17:15:10;101462.78;;;9.13;30.56
75409;BME280;63979;55.644;37.734;2023-05-07T17:20:12;101474.19;;;8.91;30.14
75409;BME280;63979;55.644;37.734;2023-05-07T17:25:14;101475.88;;;8.69;31.31
75409;BME280;63979;55.644;37.734;2023-05-07T17:30:15;101455.63;;;8.38;31.72
75409;BME280;63979;55.644;37.734;2023-05-07T17:35:16;101472.75;;;8.28;32.23
75409;BME280;63979;55.644;37.734;2023-05-07T17:40:19;101476.00;;;8.10;32.16
75409;BME280;63979;55.644;37.734;2023-05-07T17:45:22;101487.00;;;7.99;32.35
75409;BME280;63979;55.644;37.734;2023-05-07T17:50:23;101436.91;;;7.56;32.77
75409;BME280;63979;55.644;37.734;2023-05-07T17:55:24;101435.53;;;7.43;33.21
75409;BME280;63979;55.644;37.734;2023-05-07T18:00:25;101486.22;;;7.66;33.01
75409;BME280;63979;55.644;37.734;2023-05-07T18:05:26;101477.72;;;7.54;33.62
75409;BME280;63979;55.644;37.734;2023-05-07T18:10:28;101480.72;;;7.43;33.08
75409;BME280;63979;55.644;37.734;2023-05-07T18:15:29;101488.09;;;7.33;33.03
75409;BME280;63979;55.644;37.734;2023-05-07T18:20:30;101502.22;;;7.34;34.43
75409;BME280;63979;55.644;37.734;2023-05-07T18:25:31;101492.63;;;7.30;35.23
75409;BME280;63979;55.644;37.734;2023-05-07T18:30:32;101498.13;;;7.22;34.18
75409;BME280;63979;55.644;37.734;2023-05-07T18:35:33;101506.13;;;7.20;34.70
75409;BME280;63979;55.644;37.734;2023-05-07T18:40:35;101509.13;;;7.08;36.08
75409;BME280;63979;55.644;37.734;2023-05-07T18:45:36;101506.75;;;6.98;36.48
75409;BME280;63979;55.644;37.734;2023-05-07T18:50:42;101514.16;;;6.85;36.73
75409;BME280;63979;55.644;37.734;2023-05-07T18:55:48;101516.16;;;6.77;37.30
75409;BME280;63979;55.644;37.734;2023-05-07T19:00:50;101511.25;;;6.62;38.20
75409;BME280;63979;55.644;37.734;2023-05-07T19:05:51;101532.50;;;6.60;38.01
75409;BME280;63979;55.644;37.734;2023-05-07T19:10:55;101518.75;;;6.43;39.89
75409;BME280;63979;55.644;37.734;2023-05-07T19:15:57;101521.53;;;6.38;40.19
75409;BME280;63979;55.644;37.734;2023-05-07T19:20:57;101535.84;;;6.31;40.54
75409;BME280;63979;55.644;37.734;2023-05-07T19:26:01;101517.56;;;6.19;42.30
75409;BME280;63979;55.644;37.734;2023-05-07T19:31:02;101536.03;;;6.22;43.30
75409;BME280;63979;55.644;37.734;2023-05-07T19:36:04;101540.44;;;6.23;42.65
75409;BME280;63979;55.644;37.734;2023-05-07T19:41:05;101543.13;;;6.21;42.98
75409;BME280;63979;55.644;37.734;2023-05-07T19:46:06;101533.66;;;6.11;43.68
75409;BME280;63979;55.644;37.734;2023-05-07T19:51:07;101553.19;;;6.07;42.92
75409;BME280;63979;55.644;37.734;2023-05-07T19:56:09;101562.28;;;5.96;43.79
75409;BME280;63979;55.644;37.734;2023-05-07T20:01:11;101568.59;;;5.90;44.64
75409;BME280;63979;55.644;37.734;2023-05-07T20:06:11;101556.34;;;5.81;44.24
75409;BME280;63979;55.644;37.734;2023-05-07T20:11:16;101567.06;;;5.77;43.82
75409;BME280;63979;55.644;37.734;2023-05-07T20:16:16;101574.22;;;5.72;44.86
75409;BME280;63979;55.644;37.734;2023-05-07T20:21:18;101565.63;;;5.60;45.75
75409;BME280;63979;55.644;37.734;2023-05-07T20:26:18;101574.50;;;5.58;46.13
75409;BME280;63979;55.644;37.734;2023-05-07T20:31:20;101591.34;;;5.54;46.33
75409;BME280;63979;55.644;37.734;2023-05-07T20:36:21;101585.34;;;5.44;46.88
75409;BME280;63979;55.644;37.734;2023-05-07T20:41:25;101594.31;;;5.37;47.61
75409;BME280;63979;55.644;37.734;2023-05-07T20:46:26;101554.38;;;5.01;49.16
75409;BME280;63979;55.644;37.734;2023-05-07T20:51:27;101586.69;;;5.19;49.95
75409;BME280;63979;55.644;37.734;2023-05-07T20:56:28;101619.22;;;5.28;51.45
75409;BME280;63979;55.644;37.734;2023-05-07T21:01:29;101600.81;;;5.19;52.44
75409;BME280;63979;55.644;37.734;2023-05-07T21:06:30;101622.81;;;5.24;55.60
75409;BME280;63979;55.644;37.734;2023-05-07T21:11:30;101616.72;;;5.18;57.65
75409;BME280;63979;55.644;37.734;2023-05-07T21:16:31;101627.41;;;5.13;58.47
75409;BME280;63979;55.644;37.734;2023-05-07T21:21:32;101617.81;;;5.06;58.30
75409;BME280;63979;55.644;37.734;2023-05-07T21:26:33;101641.66;;;5.05;59.48
75409;BME280;63979;55.644;37.734;2023-05-07T21:31:34;101635.63;;;4.96;59.08
75409;BME280;63979;55.644;37.734;2023-05-07T21:36:35;101633.06;;;4.92;60.81
75409;BME280;63979;55.644;37.734;2023-05-07T21:41:36;101634.91;;;4.87;60.35
75409;BME280;63979;55.644;37.734;2023-05-07T21:46:37;101632.47;;;4.73;60.94
75409;BME280;63979;55.644;37.734;2023-05-07T21:51:37;101637.03;;;4.63;61.28
75409;BME280;63979;55.644;37.734;2023-05-07T21:56:38;101628.41;;;4.49;62.07
75409;BME280;63979;55.644;37.734;2023-05-07T22:01:39;101634.72;;;4.41;61.69
75409;BME280;63979;55.644;37.734;2023-05-07T22:06:40;101591.16;;;4.04;62.23
75409;BME280;63979;55.644;37.734;2023-05-07T22:11:41;101636.69;;;4.26;61.87
75409;BME280;63979;55.644;37.734;2023-05-07T22:16:42;101640.25;;;4.24;63.09
75409;BME280;63979;55.644;37.734;2023-05-07T22:21:43;101630.69;;;4.12;63.03
75409;BME280;63979;55.644;37.734;2023-05-07T22:26:44;101648.25;;;4.18;63.43
75409;BME280;63979;55.644;37.734;2023-05-07T22:31:51;101652.69;;;4.13;64.14
75409;BME280;63979;55.644;37.734;2023-05-07T22:36:52;101650.13;;;4.08;64.42
75409;BME280;63979;55.644;37.734;2023-05-07T22:41:53;101636.22;;;3.92;65.29
75409;BME280;63979;55.644;37.734;2023-05-07T22:46:54;101644.97;;;3.99;66.12
75409;BME280;63979;55.644;37.734;2023-05-07T22:51:54;101645.06;;;3.91;65.07
75409;BME280;63979;55.644;37.734;2023-05-07T22:56:55;101654.75;;;3.91;65.32
75409;BME280;63979;55.644;37.734;2023-05-07T23:01:59;101654.84;;;3.83;66.15
75409;BME280;63979;55.644;37.734;2023-05-07T23:06:59;101626.84;;;3.67;66.59
75409;BME280;63979;55.644;37.734;2023-05-07T23:12:00;101631.22;;;3.68;66.31
75409;BME280;63979;55.644;37.734;2023-05-07T23:17:01;101635.75;;;3.57;67.10
75409;BME280;63979;55.644;37.734;2023-05-07T23:22:03;101619.22;;;3.39;67.03
75409;BME280;63979;55.644;37.734;2023-05-07T23:27:04;101660.41;;;3.56;67.59
75409;BME280;63979;55.644;37.734;2023-05-07T23:32:06;101635.97;;;3.35;67.54
75409;BME280;63979;55.644;37.734;2023-05-07T23:37:07;101663.97;;;3.53;68.36
75409;BME280;63979;55.644;37.734;2023-05-07T23:42:09;101653.25;;;3.65;66.14
75409;BME280;63979;55.644;37.734;2023-05-07T23:47:10;101641.81;;;3.65;62.91
75409;BME280;63979;55.644;37.734;2023-05-07T23:52:12;101658.47;;;3.71;61.84
75409;BME280;63979;55.644;37.734;2023-05-07T23:57:13;101639.03;;;3.77;59.61
